Time;durP1;ratioP1;P1;durP2;ratioP2;P2;SDS_P1;SDS_P2;PMS_P1;PMS_P2;Temp;Humidity;BMP_temperature;BMP_pressure;BME280_temperature;BME280_humidity;BME280_pressure;Samples;Min_cycle;Max_cycle;Signal;HPM_P1;HPM_P2
2021/11/08 00:01:35;;;;;;;;;;;10.10;95.50;;;;;;4407560;32;43348;-80
2021/11/08 00:04:04;;;;;;;;;;;10.10;95.50;;;;;;4421982;32;36287;-80
2021/11/08 00:06:31;;;;;;;;;;;10.10;95.50;;;;;;4408107;32;44700;-80
2021/11/08 00:08:58;;;;;;;;;;;10.00;95.40;;;;;;4407881;32;45733;-80
2021/11/08 00:11:25;;;;;;;;;;;10.10;95.50;;;;;;4421362;32;40764;-80
2021/11/08 00:13:53;;;;;;;;;;;10.00;95.40;;;;;;4421919;32;20582;-80
2021/11/08 00:21:19;;;;;;;;;;;10.00;95.40;;;;;;4422586;32;20034;-80
2021/11/08 00:23:46;;;;;;;;;;;10.00;95.70;;;;;;4421112;32;41766;-80
2021/11/08 00:26:14;;;;;;;;;;;10.00;95.30;;;;;;4422255;32;20038;-80
2021/11/08 00:28:42;;;;;;;;;;;10.00;95.30;;;;;;4421156;32;43557;-80
2021/11/08 00:31:09;;;;;;;;;;;10.00;95.60;;;;;;4407230;32;45794;-80
2021/11/08 00:33:39;;;;;;;;;;;10.00;95.30;;;;;;4408010;32;38592;-80
2021/11/08 00:36:07;;;;;;;;;;;10.00;95.30;;;;;;4421284;32;43658;-80
2021/11/08 00:38:36;;;;;;;;;;;10.00;95.30;;;;;;4407132;32;43708;-80
2021/11/08 00:41:04;;;;;;;;;;;10.00;95.30;;;;;;4407551;32;40855;-80
2021/11/08 00:43:31;;;;;;;;;;;10.00;95.30;;;;;;4407509;32;36563;-80
2021/11/08 00:46:01;;;;;;;;;;;10.00;95.30;;;;;;4408178;32;20086;-80
2021/11/08 00:48:34;;;;;;;;;;;9.90;95.20;;;;;;4394345;32;45228;-80
2021/11/08 00:51:02;;;;;;;;;;;10.00;95.30;;;;;;4407895;32;34806;-80
2021/11/08 00:53:31;;;;;;;;;;;9.90;95.20;;;;;;4420639;32;44979;-80
2021/11/08 00:56:02;;;;;;;;;;;9.90;95.20;;;;;;4407352;32;43556;-80
2021/11/08 00:58:34;;;;;;;;;;;9.90;95.30;;;;;;4407553;32;43070;-80
2021/11/08 01:01:05;;;;;;;;;;;9.90;95.20;;;;;;4406933;32;44001;-80
2021/11/08 01:03:33;;;;;;;;;;;9.90;95.20;;;;;;4394426;32;40578;-80
2021/11/08 01:06:01;;;;;;;;;;;9.90;95.20;;;;;;4407466;32;44011;-80
2021/11/08 01:08:33;;;;;;;;;;;9.90;95.20;;;;;;4407059;32;43730;-80
2021/11/08 01:11:00;;;;;;;;;;;9.90;95.20;;;;;;4407472;32;39137;-80
2021/11/08 01:13:28;;;;;;;;;;;9.90;95.20;;;;;;4420954;32;42332;-80
2021/11/08 01:15:56;;;;;;;;;;;9.90;95.10;;;;;;4421321;32;20011;-80
2021/11/08 01:18:24;;;;;;;;;;;9.90;95.10;;;;;;4421174;32;20007;-81
2021/11/08 01:20:51;;;;;;;;;;;9.90;95.10;;;;;;4407921;32;24608;-80
2021/11/08 01:23:22;;;;;;;;;;;9.90;95.10;;;;;;4407883;32;20063;-80
2021/11/08 01:26:02;;;;;;;;;;;9.90;95.00;;;;;;4421612;32;20045;-80
2021/11/08 01:28:37;;;;;;;;;;;9.90;95.00;;;;;;4395582;32;20006;-81
2021/11/08 01:31:07;;;;;;;;;;;9.80;94.90;;;;;;4421149;32;23456;-80
2021/11/08 01:33:34;;;;;;;;;;;9.80;94.90;;;;;;4408062;32;20011;-80
2021/11/08 01:41:06;;;;;;;;;;;9.80;94.80;;;;;;4406836;32;27375;-80
2021/11/08 01:43:34;;;;;;;;;;;9.80;94.80;;;;;;4394573;32;20033;-80
2021/11/08 01:46:02;;;;;;;;;;;9.70;94.80;;;;;;4421377;32;20022;-80
2021/11/08 01:48:30;;;;;;;;;;;9.70;94.70;;;;;;4407312;32;21673;-80
2021/11/08 01:50:57;;;;;;;;;;;9.70;94.70;;;;;;4407726;32;20023;-80
2021/11/08 01:53:24;;;;;;;;;;;9.70;94.70;;;;;;4421027;32;20021;-80
2021/11/08 01:55:52;;;;;;;;;;;9.70;94.70;;;;;;4420775;32;20007;-80
2021/11/08 01:58:20;;;;;;;;;;;9.70;94.70;;;;;;4407130;32;22265;-80
2021/11/08 02:00:48;;;;;;;;;;;9.70;94.70;;;;;;4420546;32;22278;-80
2021/11/08 02:03:17;;;;;;;;;;;9.70;94.70;;;;;;4394464;32;21474;-80
2021/11/08 02:05:45;;;;;;;;;;;9.70;94.70;;;;;;4421315;32;20023;-80
2021/11/08 02:08:13;;;;;;;;;;;9.60;94.70;;;;;;4406678;32;21293;-80
2021/11/08 02:10:40;;;;;;;;;;;9.60;94.70;;;;;;4420992;32;23922;-80
2021/11/08 02:13:07;;;;;;;;;;;9.60;94.70;;;;;;4407479;32;20012;-80
2021/11/08 02:15:36;;;;;;;;;;;9.60;94.70;;;;;;4421080;32;20033;-80
2021/11/08 02:18:04;;;;;;;;;;;9.60;94.70;;;;;;4421163;32;20033;-80
2021/11/08 02:20:32;;;;;;;;;;;9.60;94.70;;;;;;4421006;32;22446;-80
2021/11/08 02:23:03;;;;;;;;;;;9.60;94.70;;;;;;4394953;32;20475;-80
2021/11/08 02:25:33;;;;;;;;;;;9.60;94.70;;;;;;4420896;32;20593;-80
2021/11/08 02:28:01;;;;;;;;;;;9.60;94.70;;;;;;4406755;32;20034;-80
2021/11/08 02:30:33;;;;;;;;;;;9.60;94.70;;;;;;4421112;32;19996;-80
2021/11/08 02:33:00;;;;;;;;;;;9.60;94.70;;;;;;4407436;32;20445;-80
2021/11/08 02:35:28;;;;;;;;;;;9.50;94.60;;;;;;4406806;32;20011;-80
2021/11/08 02:38:02;;;;;;;;;;;9.50;94.60;;;;;;4407205;32;20066;-80
2021/11/08 02:40:30;;;;;;;;;;;9.50;94.60;;;;;;4407165;32;20004;-80
2021/11/08 02:43:00;;;;;;;;;;;9.50;94.60;;;;;;4421128;32;20891;-80
2021/11/08 02:45:29;;;;;;;;;;;9.50;94.60;;;;;;4423727;32;19999;-80
2021/11/08 02:47:56;;;;;;;;;;;9.50;94.60;;;;;;4409471;32;21396;-80
2021/11/08 02:50:26;;;;;;;;;;;9.50;94.60;;;;;;4410164;32;20010;-80
2021/11/08 02:52:55;;;;;;;;;;;9.40;94.60;;;;;;4410103;32;20400;-80
2021/11/08 02:55:26;;;;;;;;;;;9.40;94.60;;;;;;4397773;32;20003;-80
2021/11/08 02:57:54;;;;;;;;;;;9.40;94.70;;;;;;4409747;32;20589;-80
2021/11/08 03:00:22;;;;;;;;;;;9.30;94.70;;;;;;4410002;32;20022;-80
2021/11/08 03:02:50;;;;;;;;;;;9.30;94.70;;;;;;4409817;32;20025;-80
2021/11/08 03:05:31;;;;;;;;;;;9.30;94.60;;;;;;4423520;32;20012;-80
2021/11/08 03:08:02;;;;;;;;;;;9.30;94.60;;;;;;4409534;32;20427;-80
2021/11/08 03:10:33;;;;;;;;;;;9.40;94.60;;;;;;4423176;32;20746;-80
2021/11/08 03:13:07;;;;;;;;;;;9.30;94.60;;;;;;4423544;32;20380;-80
2021/11/08 03:16:14;;;;;;;;;;;9.30;94.50;;;;;;4423374;32;20026;-80
2021/11/08 03:18:32;;;;;;;;;;;9.30;94.50;;;;;;4421067;32;20461;-80
2021/11/08 03:20:59;;;;;;;;;;;9.30;94.50;;;;;;4409532;32;22223;-80
2021/11/08 03:23:27;;;;;;;;;;;9.30;94.50;;;;;;4422766;32;20022;-80
2021/11/08 03:26:08;;;;;;;;;;;9.30;94.50;;;;;;4423775;32;19999;-80
2021/11/08 03:28:37;;;;;;;;;;;9.30;94.50;;;;;;4423368;32;20003;-80
2021/11/08 03:31:06;;;;;;;;;;;9.30;94.50;;;;;;4423249;32;20423;-80
2021/11/08 03:33:33;;;;;;;;;;;9.30;94.50;;;;;;4422995;32;20011;-80
2021/11/08 03:36:06;;;;;;;;;;;9.30;94.50;;;;;;4422775;32;20025;-80
2021/11/08 03:38:37;;;;;;;;;;;9.30;94.50;;;;;;4396627;32;23664;-80
2021/11/08 03:41:05;;;;;;;;;;;9.30;94.50;;;;;;4396310;32;21603;-80
2021/11/08 03:43:33;;;;;;;;;;;9.30;94.50;;;;;;4408711;32;24071;-80
2021/11/08 03:46:00;;;;;;;;;;;9.20;94.50;;;;;;4409377;32;20375;-80
2021/11/08 03:48:28;;;;;;;;;;;9.20;94.50;;;;;;4409334;32;20010;-80
2021/11/08 03:50:55;;;;;;;;;;;9.20;94.50;;;;;;4422797;32;19999;-80
2021/11/08 03:53:23;;;;;;;;;;;9.20;94.50;;;;;;4422611;32;20060;-80
2021/11/08 03:55:52;;;;;;;;;;;9.20;94.40;;;;;;4421528;32;43857;-80
2021/11/08 03:58:19;;;;;;;;;;;9.20;94.50;;;;;;4422230;32;36749;-80
2021/11/08 04:00:47;;;;;;;;;;;9.20;94.50;;;;;;4408091;32;42387;-80
2021/11/08 04:03:14;;;;;;;;;;;9.20;94.50;;;;;;4407583;32;43413;-80
2021/11/08 04:05:41;;;;;;;;;;;9.20;94.50;;;;;;4421330;32;44753;-80
2021/11/08 04:08:12;;;;;;;;;;;9.20;94.50;;;;;;4421432;32;44699;-80
2021/11/08 04:10:40;;;;;;;;;;;9.20;94.50;;;;;;4408657;32;20800;-80
2021/11/08 04:13:08;;;;;;;;;;;9.20;94.50;;;;;;4408575;32;20038;-80
2021/11/08 04:15:38;;;;;;;;;;;9.10;94.40;;;;;;4421598;32;45012;-80
2021/11/08 04:18:07;;;;;;;;;;;9.10;94.40;;;;;;4422901;32;20066;-80
2021/11/08 04:20:35;;;;;;;;;;;9.10;94.40;;;;;;4422331;32;20064;-80
2021/11/08 04:23:02;;;;;;;;;;;9.10;94.40;;;;;;4408592;32;19999;-80
2021/11/08 04:25:30;;;;;;;;;;;9.10;94.40;;;;;;4421571;32;44683;-80
2021/11/08 04:27:57;;;;;;;;;;;9.10;94.40;;;;;;4407465;32;44357;-80
2021/11/08 04:30:26;;;;;;;;;;;9.10;94.40;;;;;;4422695;32;20007;-80
2021/11/08 04:43:27;;;;;;;;;;;9.00;94.50;;;;;;4422414;32;20053;-80
2021/11/08 04:51:34;;;;;;;;;;;9.00;94.50;;;;;;4421418;32;20412;-80
2021/11/08 05:24:01;;;;;;;;;;;9.00;94.50;;;;;;4421198;32;20364;-80
2021/11/08 05:31:42;;;;;;;;;;;8.90;94.40;;;;;;4407685;32;20379;-80
2021/11/08 05:34:09;;;;;;;;;;;9.00;94.50;;;;;;4421077;32;20015;-80
2021/11/08 05:36:36;;;;;;;;;;;8.90;94.50;;;;;;4420095;32;44977;-80
2021/11/08 05:39:04;;;;;;;;;;;8.90;94.50;;;;;;4420376;32;41915;-80
2021/11/08 05:41:33;;;;;;;;;;;8.90;94.50;;;;;;4393821;32;43019;-80
2021/11/08 05:44:02;;;;;;;;;;;8.90;94.50;;;;;;4420790;32;43156;-80
2021/11/08 05:46:30;;;;;;;;;;;8.90;94.50;;;;;;4406626;32;42151;-80
2021/11/08 05:48:57;;;;;;;;;;;8.90;94.50;;;;;;4420007;32;40588;-80
2021/11/08 05:51:24;;;;;;;;;;;8.90;94.50;;;;;;4420554;32;41709;-80
2021/11/08 05:53:52;;;;;;;;;;;8.90;94.50;;;;;;4420556;32;37961;-80
2021/11/08 06:51:08;;;;;;;;;;;8.70;94.60;;;;;;4423174;32;44298;-80
2021/11/08 06:53:36;;;;;;;;;;;8.70;94.60;;;;;;4422749;32;39715;-80
2021/11/08 06:56:03;;;;;;;;;;;8.70;94.60;;;;;;4422583;32;36862;-80
2021/11/08 06:58:31;;;;;;;;;;;8.70;94.70;;;;;;4409242;32;39130;-80
2021/11/08 07:00:58;;;;;;;;;;;8.70;94.60;;;;;;4408904;32;42054;-80
2021/11/08 07:03:25;;;;;;;;;;;8.70;94.60;;;;;;4422310;32;40942;-80
2021/11/08 07:05:52;;;;;;;;;;;8.70;94.60;;;;;;4409354;32;35875;-80
2021/11/08 07:08:20;;;;;;;;;;;8.60;94.60;;;;;;4422706;32;40301;-80
2021/11/08 07:10:48;;;;;;;;;;;8.70;94.60;;;;;;4422783;32;39617;-80
2021/11/08 07:13:16;;;;;;;;;;;8.70;94.60;;;;;;4422408;32;40977;-80
2021/11/08 07:15:43;;;;;;;;;;;8.60;94.60;;;;;;4422203;32;38391;-80
2021/11/08 07:18:14;;;;;;;;;;;8.60;94.60;;;;;;4423065;32;27657;-80
2021/11/08 07:20:44;;;;;;;;;;;8.60;94.70;;;;;;4408987;32;39982;-80
2021/11/08 07:23:11;;;;;;;;;;;8.60;94.70;;;;;;4408530;32;45212;-80
2021/11/08 07:25:39;;;;;;;;;;;8.60;94.70;;;;;;4409039;32;37349;-80
2021/11/08 07:28:10;;;;;;;;;;;8.60;94.70;;;;;;4422036;32;39831;-80
2021/11/08 07:30:38;;;;;;;;;;;8.60;94.70;;;;;;4395038;32;45324;-80
2021/11/08 07:33:06;;;;;;;;;;;8.60;94.70;;;;;;4408226;32;43614;-80
2021/11/08 07:35:33;;;;;;;;;;;8.50;94.70;;;;;;4422110;32;41790;-80
2021/11/08 07:38:03;;;;;;;;;;;8.60;94.80;;;;;;4422157;32;42851;-80
2021/11/08 07:40:30;;;;;;;;;;;8.50;94.80;;;;;;4422527;32;32343;-80
2021/11/08 07:42:57;;;;;;;;;;;8.50;94.80;;;;;;4422184;32;30099;-80
2021/11/08 07:45:26;;;;;;;;;;;8.50;94.80;;;;;;4408150;32;44311;-80
2021/11/08 07:47:54;;;;;;;;;;;8.50;94.90;;;;;;4408691;32;38682;-80
2021/11/08 07:50:35;;;;;;;;;;;8.50;94.90;;;;;;4422988;32;20015;-80
2021/11/08 07:53:03;;;;;;;;;;;8.50;94.90;;;;;;4409749;32;20007;-80
2021/11/08 07:55:30;;;;;;;;;;;8.40;95.00;;;;;;4409379;32;20011;-80
2021/11/08 07:57:58;;;;;;;;;;;8.40;95.00;;;;;;4423072;32;20013;-80
2021/11/08 08:00:25;;;;;;;;;;;8.40;95.20;;;;;;4408975;32;20004;-80
2021/11/08 08:02:52;;;;;;;;;;;8.40;95.20;;;;;;4408581;32;20018;-80
2021/11/08 08:05:19;;;;;;;;;;;8.40;95.20;;;;;;4422954;32;20018;-80
2021/11/08 08:07:47;;;;;;;;;;;8.40;95.30;;;;;;4408766;32;20006;-79
2021/11/08 08:10:14;;;;;;;;;;;8.40;95.40;;;;;;4422643;32;20007;-80
2021/11/08 08:12:41;;;;;;;;;;;8.40;95.40;;;;;;4422117;32;20049;-80
2021/11/08 08:15:10;;;;;;;;;;;8.40;95.40;;;;;;4422842;32;20033;-80
2021/11/08 08:17:38;;;;;;;;;;;8.40;95.50;;;;;;4409063;32;20080;-80
2021/11/08 08:20:07;;;;;;;;;;;8.40;95.50;;;;;;4409077;32;20404;-80
2021/11/08 08:22:34;;;;;;;;;;;8.40;95.60;;;;;;4422391;32;20041;-80
2021/11/08 08:25:01;;;;;;;;;;;8.40;96.00;;;;;;4409294;32;20015;-80
2021/11/08 08:27:29;;;;;;;;;;;8.40;95.70;;;;;;4408949;32;20397;-80
2021/11/08 08:29:56;;;;;;;;;;;8.40;95.70;;;;;;4409084;32;20007;-80
2021/11/08 08:32:23;;;;;;;;;;;8.40;95.80;;;;;;4421998;32;20463;-80
2021/11/08 08:34:50;;;;;;;;;;;8.40;95.80;;;;;;4408638;32;20015;-80
2021/11/08 08:37:18;;;;;;;;;;;8.40;95.80;;;;;;4422139;32;20027;-80
2021/11/08 08:39:47;;;;;;;;;;;8.40;95.80;;;;;;4422498;32;20015;-80
2021/11/08 08:42:17;;;;;;;;;;;8.40;95.80;;;;;;4422448;32;20018;-80
2021/11/08 08:44:49;;;;;;;;;;;8.40;95.90;;;;;;4422032;32;20025;-80
2021/11/08 08:47:19;;;;;;;;;;;8.50;95.90;;;;;;4408402;32;20374;-80
2021/11/08 08:49:46;;;;;;;;;;;8.50;95.90;;;;;;4421820;32;20015;-80
2021/11/08 08:52:14;;;;;;;;;;;8.50;95.90;;;;;;4408046;32;20033;-80
2021/11/08 08:54:41;;;;;;;;;;;8.50;96.00;;;;;;4408467;32;20023;-80
2021/11/08 08:57:12;;;;;;;;;;;8.50;95.90;;;;;;4408029;32;20007;-80
2021/11/08 08:59:39;;;;;;;;;;;8.50;96.00;;;;;;4408827;32;20044;-77
2021/11/08 09:02:08;;;;;;;;;;;8.50;96.00;;;;;;4421691;32;20407;-77
2021/11/08 09:04:35;;;;;;;;;;;8.60;96.00;;;;;;4408388;32;20036;-80
2021/11/08 09:07:05;;;;;;;;;;;8.60;96.00;;;;;;4421607;32;20081;-78
2021/11/08 09:09:32;;;;;;;;;;;8.60;96.00;;;;;;4421939;32;20138;-80
2021/11/08 09:12:02;;;;;;;;;;;8.60;96.00;;;;;;4407840;32;20018;-77
2021/11/08 09:14:30;;;;;;;;;;;8.60;96.00;;;;;;4421370;32;20007;-80
2021/11/08 09:16:58;;;;;;;;;;;8.60;96.00;;;;;;4408071;32;20058;-81
2021/11/08 09:19:30;;;;;;;;;;;8.60;96.00;;;;;;4422110;32;20030;-81
2021/11/08 09:22:01;;;;;;;;;;;8.60;96.10;;;;;;4408883;32;20021;-82
2021/11/08 09:24:31;;;;;;;;;;;8.60;96.40;;;;;;4421920;32;20004;-82
2021/11/08 09:27:00;;;;;;;;;;;8.60;96.10;;;;;;4421528;32;20112;-83
2021/11/08 09:29:30;;;;;;;;;;;8.60;96.10;;;;;;4407922;32;20014;-81
2021/11/08 09:32:01;;;;;;;;;;;8.60;96.10;;;;;;4407695;32;20011;-82
2021/11/08 09:34:36;;;;;;;;;;;8.70;96.10;;;;;;4408053;32;19988;-82
2021/11/08 09:37:11;;;;;;;;;;;8.70;96.10;;;;;;4408367;32;20015;-82
2021/11/08 09:39:41;;;;;;;;;;;8.70;96.10;;;;;;4407898;32;20010;-81
2021/11/08 09:42:15;;;;;;;;;;;8.70;96.10;;;;;;4407808;32;19995;-82
2021/11/08 09:44:45;;;;;;;;;;;8.80;96.20;;;;;;4421736;32;20454;-82
2021/11/08 09:47:18;;;;;;;;;;;8.80;96.20;;;;;;4421596;32;20081;-82
2021/11/08 09:49:51;;;;;;;;;;;8.80;96.20;;;;;;4421407;32;20013;-82
2021/11/08 09:52:26;;;;;;;;;;;8.80;96.20;;;;;;4406917;32;20021;-83
2021/11/08 09:55:06;;;;;;;;;;;8.80;96.20;;;;;;4408448;32;20019;-83
2021/11/08 09:57:36;;;;;;;;;;;8.90;96.20;;;;;;4394630;32;29385;-83
2021/11/08 10:00:29;;;;;;;;;;;8.90;96.20;;;;;;4394386;32;33354;-82
2021/11/08 10:03:01;;;;;;;;;;;8.90;96.20;;;;;;4404786;32;20048;-82
2021/11/08 10:05:39;;;;;;;;;;;8.90;96.20;;;;;;4408138;32;20041;-82
2021/11/08 10:08:29;;;;;;;;;;;8.90;96.20;;;;;;4409256;32;20021;-82
2021/11/08 10:11:05;;;;;;;;;;;8.90;96.20;;;;;;4395329;32;20366;-82
2021/11/08 10:13:36;;;;;;;;;;;9.00;96.20;;;;;;4394977;32;20007;-82
2021/11/08 10:16:11;;;;;;;;;;;9.00;96.20;;;;;;4407551;32;20066;-83
2021/11/08 10:18:41;;;;;;;;;;;9.00;96.20;;;;;;4421421;32;20015;-83
2021/11/08 10:21:17;;;;;;;;;;;9.00;96.20;;;;;;4407896;32;20045;-83
2021/11/08 10:23:48;;;;;;;;;;;9.00;96.20;;;;;;4407565;32;20011;-83
2021/11/08 10:26:26;;;;;;;;;;;9.10;96.20;;;;;;4394943;32;20003;-83
2021/11/08 10:29:03;;;;;;;;;;;9.10;96.20;;;;;;4407922;32;20016;-83
2021/11/08 10:31:36;;;;;;;;;;;9.20;96.20;;;;;;4407581;32;20083;-83
2021/11/08 10:34:11;;;;;;;;;;;9.20;96.20;;;;;;4407733;32;20498;-90
2021/11/08 10:36:42;;;;;;;;;;;9.20;96.20;;;;;;4408093;32;19996;-83
2021/11/08 10:39:13;;;;;;;;;;;9.20;96.20;;;;;;4421067;32;20003;-85
2021/11/08 10:41:47;;;;;;;;;;;9.30;96.20;;;;;;4407709;32;20003;-84
2021/11/08 10:44:22;;;;;;;;;;;9.30;96.20;;;;;;4407565;32;20374;-85
2021/11/08 10:47:03;;;;;;;;;;;9.40;96.20;;;;;;4421132;32;20003;-85
2021/11/08 10:49:35;;;;;;;;;;;9.40;96.20;;;;;;4407584;32;20011;-85
2021/11/08 10:52:06;;;;;;;;;;;9.40;96.20;;;;;;4407757;32;20075;-84
2021/11/08 10:54:38;;;;;;;;;;;9.50;96.20;;;;;;4421528;32;20478;-85
2021/11/08 10:57:25;;;;;;;;;;;9.50;96.20;;;;;;4407270;32;19996;-84
2021/11/08 10:59:56;;;;;;;;;;;9.50;96.10;;;;;;4420912;32;20010;-84
2021/11/08 11:02:28;;;;;;;;;;;9.60;96.20;;;;;;4421198;32;20059;-85
2021/11/08 11:04:59;;;;;;;;;;;9.60;96.20;;;;;;4394718;32;22270;-84
2021/11/08 11:07:30;;;;;;;;;;;9.70;96.20;;;;;;4396775;32;20060;-86
2021/11/08 11:10:08;;;;;;;;;;;9.70;96.20;;;;;;4410546;32;20410;-86
2021/11/08 11:12:39;;;;;;;;;;;9.70;96.10;;;;;;4408717;32;19999;-87
2021/11/08 11:15:10;;;;;;;;;;;9.70;96.00;;;;;;4409772;32;20033;-86
2021/11/08 11:17:45;;;;;;;;;;;9.80;96.10;;;;;;4409253;32;32992;-86
2021/11/08 11:20:20;;;;;;;;;;;9.90;96.10;;;;;;4397375;32;21684;-91
2021/11/08 11:23:01;;;;;;;;;;;9.90;96.10;;;;;;4424894;32;20041;-90
2021/11/08 11:25:36;;;;;;;;;;;9.90;96.10;;;;;;4397412;32;35318;-89
2021/11/08 11:28:07;;;;;;;;;;;10.00;96.10;;;;;;4424232;32;34393;-91
2021/11/08 11:30:37;;;;;;;;;;;10.00;96.10;;;;;;4397074;32;32834;-91
2021/11/08 11:33:12;;;;;;;;;;;10.00;96.00;;;;;;4398191;32;19999;-92
2021/11/08 11:35:40;;;;;;;;;;;10.10;96.10;;;;;;4398931;32;20008;-90
2021/11/08 11:38:09;;;;;;;;;;;10.10;96.10;;;;;;4397432;32;19999;-91
2021/11/08 11:40:42;;;;;;;;;;;10.10;96.10;;;;;;4409874;32;19999;-88
2021/11/08 11:43:14;;;;;;;;;;;10.10;96.00;;;;;;4397181;32;20043;-87
2021/11/08 11:45:51;;;;;;;;;;;10.20;96.40;;;;;;4409475;32;32788;-88
2021/11/08 11:48:20;;;;;;;;;;;10.20;96.00;;;;;;4396232;32;32097;-87
2021/11/08 11:51:06;;;;;;;;;;;10.20;96.00;;;;;;4411490;32;37961;-92
2021/11/08 11:53:36;;;;;;;;;;;10.20;96.00;;;;;;4396620;32;44303;-87
2021/11/08 11:56:07;;;;;;;;;;;10.30;96.00;;;;;;4409127;32;37938;-91
2021/11/08 11:58:35;;;;;;;;;;;10.30;96.00;;;;;;4423410;32;31726;-91
2021/11/08 12:01:03;;;;;;;;;;;10.30;96.00;;;;;;4397629;32;20789;-91
2021/11/08 12:03:31;;;;;;;;;;;10.30;96.00;;;;;;4397196;32;20000;-91
2021/11/08 12:05:59;;;;;;;;;;;10.40;96.00;;;;;;4398158;32;20007;-90
2021/11/08 12:08:36;;;;;;;;;;;10.40;96.00;;;;;;4410400;32;19996;-92
2021/11/08 12:11:08;;;;;;;;;;;10.40;96.00;;;;;;4410931;32;20079;-92
2021/11/08 12:13:41;;;;;;;;;;;10.40;96.10;;;;;;4397391;32;39321;-92
2021/11/08 12:16:18;;;;;;;;;;;10.40;96.00;;;;;;4397537;32;20329;-92
2021/11/08 12:18:48;;;;;;;;;;;10.40;96.10;;;;;;4410569;32;20023;-92
2021/11/08 12:21:23;;;;;;;;;;;10.50;96.00;;;;;;4410082;32;20003;-91
2021/11/08 12:23:55;;;;;;;;;;;10.50;96.10;;;;;;4424317;32;20009;-92
2021/11/08 12:26:26;;;;;;;;;;;10.50;96.10;;;;;;4398341;32;19999;-91
2021/11/08 12:29:11;;;;;;;;;;;10.60;96.10;;;;;;4410776;32;20076;-92
2021/11/08 12:31:43;;;;;;;;;;;10.60;96.10;;;;;;4410530;32;40026;-93
2021/11/08 12:34:20;;;;;;;;;;;10.60;96.00;;;;;;4397079;32;38225;-93
2021/11/08 12:36:56;;;;;;;;;;;10.60;96.00;;;;;;4410682;32;20022;-93
2021/11/08 12:39:27;;;;;;;;;;;10.70;96.00;;;;;;4398234;32;20296;-94
2021/11/08 12:42:04;;;;;;;;;;;10.70;96.00;;;;;;4424718;32;20015;-93
2021/11/08 12:44:37;;;;;;;;;;;10.70;96.00;;;;;;4411083;32;19999;-92
2021/11/08 12:47:10;;;;;;;;;;;10.70;96.00;;;;;;4397827;32;20067;-93
2021/11/08 12:49:42;;;;;;;;;;;10.70;96.10;;;;;;4397983;32;19999;-94
2021/11/08 12:52:14;;;;;;;;;;;10.80;96.00;;;;;;4397910;32;19996;-92
2021/11/08 12:54:55;;;;;;;;;;;10.80;96.00;;;;;;4398056;32;20003;-93
2021/11/08 12:57:24;;;;;;;;;;;10.80;96.00;;;;;;4397320;32;20460;-92
2021/11/08 12:59:59;;;;;;;;;;;10.90;95.90;;;;;;4410609;32;20397;-92
2021/11/08 13:02:33;;;;;;;;;;;10.90;95.90;;;;;;4423639;32;20026;-93
2021/11/08 13:05:10;;;;;;;;;;;11.00;96.00;;;;;;4410290;32;20005;-93
2021/11/08 13:07:44;;;;;;;;;;;11.00;95.90;;;;;;4410380;32;20000;-91
2021/11/08 13:10:20;;;;;;;;;;;11.00;95.90;;;;;;4410426;32;20351;-93
2021/11/08 13:12:48;;;;;;;;;;;11.10;95.90;;;;;;4397650;32;20007;-95
2021/11/08 13:15:25;;;;;;;;;;;11.10;95.90;;;;;;4410044;32;20041;-93
2021/11/08 13:18:02;;;;;;;;;;;11.10;95.90;;;;;;4423855;32;20003;-92
2021/11/08 13:20:34;;;;;;;;;;;11.20;95.90;;;;;;4397536;32;20005;-92
2021/11/08 13:23:05;;;;;;;;;;;11.20;95.90;;;;;;4396104;32;39993;-92
2021/11/08 13:25:42;;;;;;;;;;;11.20;95.80;;;;;;4397027;32;19995;-93
2021/11/08 13:28:13;;;;;;;;;;;11.20;95.80;;;;;;4396450;32;20384;-92
2021/11/08 13:30:48;;;;;;;;;;;11.30;95.80;;;;;;4409574;32;20004;-92
2021/11/08 13:33:25;;;;;;;;;;;11.30;95.80;;;;;;4409396;32;20655;-91
2021/11/08 13:35:56;;;;;;;;;;;11.30;95.80;;;;;;4397178;32;19995;-92
2021/11/08 13:38:27;;;;;;;;;;;11.30;95.70;;;;;;4423373;32;20431;-92
2021/11/08 13:40:57;;;;;;;;;;;11.30;95.70;;;;;;4410075;32;20007;-93
2021/11/08 13:43:42;;;;;;;;;;;11.40;95.70;;;;;;4397970;32;20017;-92
2021/11/08 13:46:35;;;;;;;;;;;11.40;95.70;;;;;;4423109;32;20019;-91
2021/11/08 13:49:09;;;;;;;;;;;11.40;95.60;;;;;;4418116;32;41178;-91
2021/11/08 13:51:58;;;;;;;;;;;11.40;95.60;;;;;;4395649;32;46008;-91
2021/11/08 13:54:31;;;;;;;;;;;11.40;95.60;;;;;;4395887;32;37907;-92
2021/11/08 13:57:00;;;;;;;;;;;11.50;95.60;;;;;;4397014;32;20006;-91
2021/11/08 13:59:30;;;;;;;;;;;11.50;95.90;;;;;;4396988;32;19991;-91
2021/11/08 14:02:00;;;;;;;;;;;11.50;95.60;;;;;;4397246;32;19995;-92
2021/11/08 14:04:34;;;;;;;;;;;11.50;95.50;;;;;;4408649;32;20011;-92
2021/11/08 14:07:06;;;;;;;;;;;11.50;95.50;;;;;;4396656;32;20008;-92
2021/11/08 14:09:37;;;;;;;;;;;11.60;95.60;;;;;;4409070;32;20374;-93
2021/11/08 14:12:08;;;;;;;;;;;11.50;95.50;;;;;;4410033;32;20062;-93
2021/11/08 14:14:44;;;;;;;;;;;11.60;95.50;;;;;;4397191;32;20051;-91
2021/11/08 14:17:22;;;;;;;;;;;11.60;95.50;;;;;;4408769;32;37044;-92
2021/11/08 14:19:55;;;;;;;;;;;11.60;95.50;;;;;;4395900;32;29429;-91
2021/11/08 14:22:26;;;;;;;;;;;11.60;95.50;;;;;;4408047;32;43075;-92
2021/11/08 14:24:57;;;;;;;;;;;11.70;95.50;;;;;;4421880;32;38185;-93
2021/11/08 14:27:28;;;;;;;;;;;11.70;95.40;;;;;;4408577;32;37526;-92
2021/11/08 14:30:08;;;;;;;;;;;11.70;95.40;;;;;;4422182;32;38671;-92
2021/11/08 14:32:35;;;;;;;;;;;11.70;95.30;;;;;;4408447;32;43520;-92
2021/11/08 14:35:13;;;;;;;;;;;11.80;95.30;;;;;;4408863;32;35890;-92
2021/11/08 14:37:43;;;;;;;;;;;11.80;95.20;;;;;;4395523;32;41924;-91
2021/11/08 14:40:17;;;;;;;;;;;11.80;95.10;;;;;;4398044;32;20446;-92
2021/11/08 14:42:50;;;;;;;;;;;11.80;95.10;;;;;;4412650;32;20000;-92
2021/11/08 14:45:30;;;;;;;;;;;11.80;95.10;;;;;;4410760;32;42715;-92
2021/11/08 14:48:02;;;;;;;;;;;11.90;95.00;;;;;;4425294;32;36988;-92
2021/11/08 14:50:34;;;;;;;;;;;11.90;95.00;;;;;;4399660;32;20411;-92
2021/11/08 14:53:07;;;;;;;;;;;11.90;94.90;;;;;;4398252;32;44386;-92
2021/11/08 14:55:36;;;;;;;;;;;11.90;94.80;;;;;;4411017;32;44286;-91
2021/11/08 14:58:14;;;;;;;;;;;12.00;94.80;;;;;;4398427;32;37090;-92
2021/11/08 15:00:47;;;;;;;;;;;12.00;94.70;;;;;;4398329;32;36911;-92
2021/11/08 15:03:16;;;;;;;;;;;12.00;94.60;;;;;;4425659;32;20590;-92
2021/11/08 15:05:49;;;;;;;;;;;12.00;94.50;;;;;;4399076;32;20056;-92
2021/11/08 15:08:21;;;;;;;;;;;12.00;94.50;;;;;;4411308;32;32514;-92
2021/11/08 15:10:53;;;;;;;;;;;12.00;94.50;;;;;;4410407;32;45124;-92
2021/11/08 15:13:24;;;;;;;;;;;12.10;94.40;;;;;;4411378;32;20012;-92
2021/11/08 15:15:54;;;;;;;;;;;12.10;94.40;;;;;;4411945;32;20007;-91
2021/11/08 15:18:23;;;;;;;;;;;12.10;94.30;;;;;;4398288;32;35839;-92
2021/11/08 15:20:54;;;;;;;;;;;12.10;94.30;;;;;;4399152;32;20004;-92
2021/11/08 15:23:28;;;;;;;;;;;12.10;94.20;;;;;;4425482;32;20007;-91
2021/11/08 15:26:01;;;;;;;;;;;12.10;94.10;;;;;;4411593;32;20070;-92
2021/11/08 15:28:31;;;;;;;;;;;12.20;94.10;;;;;;4425509;32;20000;-92
2021/11/08 15:31:13;;;;;;;;;;;12.10;94.10;;;;;;4398882;32;20066;-92
2021/11/08 15:33:46;;;;;;;;;;;12.20;94.00;;;;;;4410442;32;35977;-91
2021/11/08 15:36:24;;;;;;;;;;;12.20;94.00;;;;;;4397660;32;40883;-92
2021/11/08 15:38:57;;;;;;;;;;;12.20;94.00;;;;;;4411152;32;20000;-92
2021/11/08 15:41:27;;;;;;;;;;;12.20;93.90;;;;;;4411330;32;20437;-91
2021/11/08 15:44:00;;;;;;;;;;;12.20;93.90;;;;;;4411120;32;20039;-91
2021/11/08 15:46:29;;;;;;;;;;;12.20;93.80;;;;;;4397450;32;39816;-92
2021/11/08 15:48:59;;;;;;;;;;;12.20;93.80;;;;;;4411650;32;20037;-91
2021/11/08 15:51:29;;;;;;;;;;;12.20;93.70;;;;;;4409532;32;42185;-92
2021/11/08 15:53:58;;;;;;;;;;;12.20;93.60;;;;;;4424868;32;20008;-92
2021/11/08 15:56:27;;;;;;;;;;;12.20;93.60;;;;;;4410190;32;39532;-91
2021/11/08 15:58:54;;;;;;;;;;;12.20;93.60;;;;;;4411106;32;20083;-91
2021/11/08 16:01:24;;;;;;;;;;;12.20;93.50;;;;;;4397524;32;42169;-91
2021/11/08 16:03:54;;;;;;;;;;;12.20;93.50;;;;;;4410548;32;20011;-91
2021/11/08 16:06:24;;;;;;;;;;;12.20;93.40;;;;;;4396807;32;36535;-91
2021/11/08 16:08:56;;;;;;;;;;;12.20;93.30;;;;;;4398318;32;20003;-92
2021/11/08 16:11:24;;;;;;;;;;;12.20;93.30;;;;;;4423557;32;33325;-90
2021/11/08 16:13:55;;;;;;;;;;;12.20;93.20;;;;;;4423178;32;40963;-91
2021/11/08 16:16:25;;;;;;;;;;;12.20;93.20;;;;;;4410313;32;19995;-90
2021/11/08 16:18:56;;;;;;;;;;;12.20;93.20;;;;;;4423305;32;37329;-91
2021/11/08 16:21:26;;;;;;;;;;;12.20;93.20;;;;;;4396710;32;44642;-91
2021/11/08 16:23:57;;;;;;;;;;;12.20;93.10;;;;;;4422895;32;42100;-91
2021/11/08 16:26:27;;;;;;;;;;;12.20;93.10;;;;;;4409917;32;38431;-91
2021/11/08 16:28:56;;;;;;;;;;;12.20;93.00;;;;;;4396919;32;31185;-91
2021/11/08 16:31:42;;;;;;;;;;;12.20;93.00;;;;;;4396577;32;45202;-91
2021/11/08 16:34:14;;;;;;;;;;;12.20;93.00;;;;;;4410459;32;19988;-91
2021/11/08 16:36:45;;;;;;;;;;;12.20;92.90;;;;;;4409720;32;35060;-92
2021/11/08 16:39:18;;;;;;;;;;;12.10;92.80;;;;;;4409233;32;28912;-91
2021/11/08 16:41:45;;;;;;;;;;;12.20;92.90;;;;;;4396783;32;38651;-91